Time;durP1;ratioP1;P1;durP2;ratioP2;P2;SDS_P1;SDS_P2;PMS_P1;PMS_P2;Temp;Humidity;BMP_temperature;BMP_pressure;BME280_temperature;BME280_humidity;BME280_pressure;Samples;Min_cycle;Max_cycle;Signal;HPM_P1;HPM_P2
2021/08/03 00:01:10;;;;;;;2.03;1.67;;;15.40;99.90;;;;;;5014252;28;20207;-72
2021/08/03 00:03:38;;;;;;;2.27;2.07;;;15.40;99.90;;;;;;5014206;28;20195;-72
2021/08/03 00:06:15;;;;;;;3.13;2.20;;;15.30;99.90;;;;;;5014121;28;20178;-72
2021/08/03 00:08:56;;;;;;;2.77;2.57;;;15.30;99.90;;;;;;5014144;28;20190;-72
2021/08/03 00:11:23;;;;;;;2.97;2.73;;;15.30;99.90;;;;;;5013188;28;20186;-72
2021/08/03 00:13:49;;;;;;;2.90;2.40;;;15.30;99.90;;;;;;5018782;28;20202;-72
2021/08/03 00:16:15;;;;;;;3.60;3.30;;;15.30;99.90;;;;;;5013771;28;20187;-72
2021/08/03 00:18:42;;;;;;;4.53;3.90;;;15.30;99.90;;;;;;5014287;28;20186;-72
2021/08/03 00:21:11;;;;;;;4.20;3.80;;;15.30;99.90;;;;;;5013852;28;20669;-72
2021/08/03 00:23:41;;;;;;;4.50;4.10;;;15.20;99.90;;;;;;5014166;28;20175;-72
2021/08/03 00:26:09;;;;;;;4.00;3.70;;;15.20;99.90;;;;;;5012459;28;20519;-72
2021/08/03 00:28:36;;;;;;;4.27;3.80;;;15.10;99.90;;;;;;5013831;28;20716;-72
2021/08/03 00:31:02;;;;;;;4.37;4.07;;;15.00;99.90;;;;;;5013703;28;20634;-72
2021/08/03 00:33:28;;;;;;;3.60;3.30;;;14.80;99.90;;;;;;5013693;28;20182;-72
2021/08/03 00:35:54;;;;;;;3.50;3.20;;;14.90;99.90;;;;;;5013647;28;20190;-72
2021/08/03 00:38:19;;;;;;;5.50;3.20;;;14.90;99.90;;;;;;5013760;28;20199;-72
2021/08/03 00:40:57;;;;;;;3.17;2.83;;;14.90;99.90;;;;;;5013487;28;20600;-72
2021/08/03 00:43:23;;;;;;;3.13;2.83;;;14.90;99.90;;;;;;5013637;28;20175;-72
2021/08/03 00:45:48;;;;;;;3.10;2.80;;;14.90;99.90;;;;;;5013641;28;20237;-72
2021/08/03 00:48:14;;;;;;;2.67;2.47;;;14.80;99.90;;;;;;5013388;28;20241;-72
2021/08/03 00:50:40;;;;;;;5.20;2.83;;;14.70;99.90;;;;;;5013736;28;20183;-72
2021/08/03 00:53:05;;;;;;;2.50;2.30;;;14.60;99.90;;;;;;5013372;28;20548;-72
2021/08/03 00:55:31;;;;;;;3.17;2.87;;;14.60;99.90;;;;;;5013330;28;20250;-72
2021/08/03 00:57:57;;;;;;;2.67;2.47;;;14.60;99.90;;;;;;5013402;28;20199;-72
2021/08/03 01:00:23;;;;;;;2.93;2.63;;;14.60;99.90;;;;;;5013252;28;20202;-72
2021/08/03 01:02:49;;;;;;;2.60;2.40;;;14.60;99.90;;;;;;5013251;28;20187;-72
2021/08/03 01:05:15;;;;;;;2.43;2.20;;;14.70;99.90;;;;;;5013140;28;20179;-72
2021/08/03 01:07:48;;;;;;;2.83;2.53;;;14.60;99.90;;;;;;5011895;28;20191;-72
2021/08/03 01:10:25;;;;;;;2.87;2.33;;;14.60;99.90;;;;;;5013371;28;20214;-72
2021/08/03 01:13:10;;;;;;;2.63;2.20;;;14.70;99.90;;;;;;5012995;28;20193;-72
2021/08/03 01:15:50;;;;;;;2.50;2.30;;;14.60;99.90;;;;;;5012971;28;20266;-72
2021/08/03 01:18:25;;;;;;;3.00;2.70;;;14.60;99.90;;;;;;5013304;28;20242;-72
2021/08/03 01:21:12;;;;;;;2.60;2.40;;;14.60;99.90;;;;;;5012992;28;20570;-72
2021/08/03 01:23:56;;;;;;;2.00;1.90;;;14.60;99.90;;;;;;5012980;28;20178;-72
2021/08/03 01:27:03;;;;;;;3.03;2.07;;;14.50;99.90;;;;;;5012874;28;20193;-72
2021/08/03 01:29:31;;;;;;;2.47;2.27;;;14.50;99.90;;;;;;5005546;28;20198;-72
2021/08/03 01:32:07;;;;;;;3.20;2.50;;;14.50;99.90;;;;;;5011674;28;20741;-72
2021/08/03 01:34:38;;;;;;;2.17;1.97;;;14.50;99.90;;;;;;5013031;28;20174;-72
2021/08/03 01:37:06;;;;;;;2.40;2.20;;;14.40;99.90;;;;;;5012889;28;20195;-72
2021/08/03 01:39:38;;;;;;;2.93;2.20;;;14.40;99.90;;;;;;5012845;28;20224;-72
2021/08/03 01:42:06;;;;;;;2.40;2.20;;;14.40;99.90;;;;;;5011169;28;20293;-72
2021/08/03 01:44:33;;;;;;;2.37;2.17;;;;;;;;;;5009545;28;20675;-72
2021/08/03 01:47:01;;;;;;;2.60;2.40;;;14.10;99.90;;;;;;5010737;28;20674;-72
2021/08/03 01:49:27;;;;;;;2.73;2.20;;;14.20;99.90;;;;;;5010178;28;20179;-72
2021/08/03 01:51:54;;;;;;;2.60;2.40;;;14.20;99.90;;;;;;5012844;28;20676;-72
2021/08/03 01:54:23;;;;;;;2.57;2.37;;;14.20;99.90;;;;;;5012816;28;20230;-72
2021/08/03 01:56:50;;;;;;;3.77;2.40;;;14.20;99.90;;;;;;5011229;28;20207;-72
2021/08/03 01:59:18;;;;;;;2.57;2.47;;;14.20;99.90;;;;;;5011737;28;20195;-72
2021/08/03 02:01:44;;;;;;;2.50;2.30;;;14.20;99.90;;;;;;5012681;28;20206;-72
2021/08/03 02:04:12;;;;;;;2.87;1.93;;;14.20;99.90;;;;;;5012676;28;20669;-72
2021/08/03 02:06:38;;;;;;;2.10;2.00;;;;;;;;;;5012611;28;20273;-72
2021/08/03 02:09:05;;;;;;;2.17;2.00;;;14.20;99.90;;;;;;5012653;28;20190;-72
2021/08/03 02:11:34;;;;;;;2.33;2.13;;;14.10;99.90;;;;;;5014792;28;20175;-71
2021/08/03 02:14:00;;;;;;;2.93;2.17;;;14.10;99.90;;;;;;5009034;28;20704;-72
2021/08/03 02:16:26;;;;;;;2.80;1.50;;;14.00;99.90;;;;;;5012417;28;20206;-71
2021/08/03 02:18:52;;;;;;;2.50;1.70;;;13.70;99.90;;;;;;5015121;28;20183;-71
2021/08/03 02:21:20;;;;;;;3.07;1.97;;;13.80;99.90;;;;;;5012478;28;20206;-72
2021/08/03 02:23:46;;;;;;;3.17;1.77;;;13.90;99.90;;;;;;5012526;28;20185;-71
2021/08/03 02:26:13;;;;;;;2.00;1.80;;;14.00;99.90;;;;;;5012494;28;20168;-72
2021/08/03 02:28:39;;;;;;;2.03;1.90;;;14.00;99.90;;;;;;5012750;28;20176;-72
2021/08/03 02:31:11;;;;;;;2.63;1.47;;;13.90;99.90;;;;;;5012365;28;20550;-72
2021/08/03 02:33:40;;;;;;;3.37;1.67;;;13.90;99.90;;;;;;5013255;28;20262;-72
2021/08/03 02:36:12;;;;;;;2.27;1.50;;;13.80;99.90;;;;;;5015874;28;20592;-74
2021/08/03 02:38:43;;;;;;;3.37;1.70;;;13.80;99.90;;;;;;5015960;28;20172;-71
2021/08/03 02:41:10;;;;;;;1.77;1.67;;;13.80;99.90;;;;;;5010161;28;20206;-73
2021/08/03 02:43:37;;;;;;;3.27;1.83;;;13.80;99.90;;;;;;5015822;28;20175;-73
2021/08/03 02:46:04;;;;;;;2.30;1.83;;;13.90;99.90;;;;;;5015665;28;20175;-73
2021/08/03 02:48:32;;;;;;;2.23;1.60;;;13.80;99.90;;;;;;5015714;28;20171;-74
2021/08/03 02:50:59;;;;;;;3.50;2.10;;;13.80;99.90;;;;;;5015997;28;20664;-73
2021/08/03 02:53:32;;;;;;;2.00;1.70;;;13.80;99.90;;;;;;5015504;28;20178;-73
2021/08/03 02:56:09;;;;;;;4.33;2.10;;;13.80;99.90;;;;;;5015742;28;20199;-73
2021/08/03 02:58:52;;;;;;;2.37;1.90;;;13.70;99.90;;;;;;5015535;28;20182;-73
2021/08/03 03:01:22;;;;;;;1.97;1.67;;;13.70;99.90;;;;;;5015566;28;20618;-73
2021/08/03 03:03:52;;;;;;;1.70;1.60;;;13.60;99.90;;;;;;5015586;28;20199;-73
2021/08/03 03:06:20;;;;;;;3.30;1.60;;;13.60;99.90;;;;;;5015258;28;20225;-73
2021/08/03 03:08:47;;;;;;;2.87;1.70;;;13.60;99.90;;;;;;5015316;28;20658;-73
2021/08/03 03:11:14;;;;;;;1.93;1.57;;;13.50;99.90;;;;;;5015473;28;20182;-73
2021/08/03 03:13:51;;;;;;;1.40;1.30;;;13.50;99.90;;;;;;5015735;28;20522;-73
2021/08/03 03:16:21;;;;;;;2.40;1.70;;;13.50;99.90;;;;;;5015219;28;20320;-73
2021/08/03 03:18:48;;;;;;;2.07;1.97;;;13.50;99.90;;;;;;5015265;28;20210;-73
2021/08/03 03:21:17;;;;;;;2.10;1.50;;;13.50;99.90;;;;;;5014988;28;20688;-73
2021/08/03 03:23:43;;;;;;;1.53;1.43;;;13.50;99.90;;;;;;5015427;28;20174;-73
2021/08/03 03:26:10;;;;;;;1.93;1.30;;;13.60;99.90;;;;;;5014857;28;20171;-73
2021/08/03 03:28:40;;;;;;;1.93;1.47;;;13.60;99.90;;;;;;5014510;28;20170;-73
2021/08/03 03:31:06;;;;;;;1.90;1.43;;;13.60;99.90;;;;;;5014875;28;20190;-73
2021/08/03 03:33:34;;;;;;;3.13;1.47;;;13.60;99.90;;;;;;5014849;28;20207;-73
2021/08/03 03:36:01;;;;;;;4.33;1.47;;;13.50;99.90;;;;;;5014778;28;20175;-73
2021/08/03 03:38:30;;;;;;;1.47;1.37;;;13.40;99.90;;;;;;5014612;28;20199;-73
2021/08/03 03:40:57;;;;;;;3.00;1.70;;;13.40;99.90;;;;;;5014743;28;20211;-73
2021/08/03 03:43:23;;;;;;;3.13;1.40;;;13.50;99.90;;;;;;5015184;28;20208;-73
2021/08/03 03:45:55;;;;;;;2.63;1.17;;;13.30;99.90;;;;;;5014692;28;20206;-73
2021/08/03 03:48:23;;;;;;;1.43;1.23;;;13.40;99.90;;;;;;5014493;28;20191;-73
2021/08/03 03:50:55;;;;;;;1.63;1.50;;;13.40;99.90;;;;;;5014543;28;20179;-73
2021/08/03 03:53:23;;;;;;;2.00;1.40;;;13.40;99.90;;;;;;5014699;28;20263;-73
2021/08/03 03:55:57;;;;;;;1.80;1.53;;;13.30;99.90;;;;;;5014434;28;20185;-73
2021/08/03 03:58:24;;;;;;;2.67;1.37;;;13.40;99.90;;;;;;5014375;28;20228;-73
2021/08/03 04:00:51;;;;;;;1.70;1.33;;;13.30;99.90;;;;;;5012733;28;20197;-73
2021/08/03 04:03:21;;;;;;;1.73;1.40;;;13.30;99.90;;;;;;4995570;28;20183;-73
2021/08/03 04:05:49;;;;;;;3.47;1.53;;;13.20;99.90;;;;;;5011132;28;20175;-73
2021/08/03 04:08:15;;;;;;;1.83;1.40;;;13.30;99.90;;;;;;5013956;28;20210;-73
2021/08/03 04:10:42;;;;;;;1.90;1.50;;;13.30;99.90;;;;;;5015160;28;20187;-73
2021/08/03 04:13:09;;;;;;;2.17;1.33;;;13.30;99.90;;;;;;5014137;28;20233;-73
2021/08/03 04:15:36;;;;;;;1.63;1.50;;;13.30;99.90;;;;;;5015607;28;20232;-73
2021/08/03 04:18:02;;;;;;;5.07;1.40;;;13.30;99.90;;;;;;5012668;28;20585;-73
2021/08/03 04:20:28;;;;;;;3.60;1.70;;;13.20;99.90;;;;;;5013934;28;20292;-73
2021/08/03 04:22:54;;;;;;;1.57;1.40;;;;;;;;;;5013830;28;20260;-73
2021/08/03 04:25:20;;;;;;;1.60;1.50;;;13.20;99.90;;;;;;5013849;28;20186;-73
2021/08/03 04:27:46;;;;;;;4.33;1.57;;;13.20;99.90;;;;;;5013704;28;20575;-73
2021/08/03 04:30:14;;;;;;;2.07;1.30;;;13.30;99.90;;;;;;5014082;28;20237;-73
2021/08/03 04:32:41;;;;;;;4.13;1.60;;;13.30;99.90;;;;;;5013695;28;20206;-73
2021/08/03 04:35:08;;;;;;;1.10;1.10;;;13.50;99.90;;;;;;5013833;28;20186;-73
2021/08/03 04:37:41;;;;;;;2.50;1.70;;;13.20;99.90;;;;;;5013768;28;20539;-73
2021/08/03 04:40:08;;;;;;;2.00;1.50;;;13.80;99.90;;;;;;5013579;28;20253;-73
2021/08/03 04:42:34;;;;;;;3.03;1.60;;;13.20;99.90;;;;;;5013651;28;20167;-73
2021/08/03 04:45:00;;;;;;;1.50;1.40;;;13.30;99.90;;;;;;5013525;28;20182;-73
2021/08/03 04:47:26;;;;;;;2.77;1.33;;;13.30;99.90;;;;;;5013505;28;20245;-73
2021/08/03 04:49:51;;;;;;;1.87;1.27;;;13.20;99.90;;;;;;5013511;28;20173;-73
2021/08/03 04:52:17;;;;;;;2.43;1.50;;;13.20;99.90;;;;;;5013814;28;20170;-73
2021/08/03 04:54:43;;;;;;;1.60;1.50;;;13.20;99.90;;;;;;5013722;28;20656;-73
2021/08/03 04:57:08;;;;;;;3.23;1.70;;;13.20;99.90;;;;;;5012811;28;20274;-73
2021/08/03 04:59:34;;;;;;;3.97;1.30;;;13.20;99.90;;;;;;5013427;28;20232;-73
2021/08/03 05:02:01;;;;;;;2.40;1.37;;;13.30;99.90;;;;;;5013292;28;20564;-73
2021/08/03 05:04:29;;;;;;;2.50;1.60;;;13.30;99.90;;;;;;5014092;28;20269;-73
2021/08/03 05:06:55;;;;;;;2.17;1.40;;;13.40;99.90;;;;;;5013224;28;20206;-73
2021/08/03 05:09:21;;;;;;;3.13;1.43;;;13.40;99.90;;;;;;5013226;28;20171;-73
2021/08/03 05:11:46;;;;;;;1.37;1.27;;;13.30;99.90;;;;;;5011964;28;20183;-73
2021/08/03 05:14:12;;;;;;;7.03;1.80;;;13.30;99.90;;;;;;5010753;28;20634;-72
2021/08/03 05:16:38;;;;;;;1.50;1.40;;;13.30;99.90;;;;;;5013111;28;20288;-72
2021/08/03 05:19:03;;;;;;;4.93;2.30;;;13.30;99.90;;;;;;5015643;28;20265;-73
2021/08/03 05:21:29;;;;;;;4.93;1.83;;;13.40;99.90;;;;;;5025123;28;20322;-73
2021/08/03 05:23:55;;;;;;;4.00;2.10;;;13.40;99.90;;;;;;5012793;28;20252;-73
2021/08/03 05:26:20;;;;;;;3.90;1.60;;;13.40;99.90;;;;;;5012910;28;20174;-73
2021/08/03 05:28:46;;;;;;;1.47;1.37;;;13.30;99.90;;;;;;5013125;28;20185;-73
2021/08/03 05:31:13;;;;;;;2.80;1.80;;;13.30;99.90;;;;;;5013202;28;20225;-73
2021/08/03 05:33:39;;;;;;;3.43;1.80;;;13.30;99.90;;;;;;5012973;28;20221;-73
2021/08/03 05:36:06;;;;;;;1.43;1.33;;;13.30;99.90;;;;;;5012934;28;20285;-73
2021/08/03 05:38:31;;;;;;;3.73;1.90;;;13.30;99.90;;;;;;5013280;28;20205;-73
2021/08/03 05:40:57;;;;;;;5.23;2.40;;;13.40;99.90;;;;;;5012973;28;20197;-73
2021/08/03 05:43:23;;;;;;;5.10;2.53;;;13.40;99.90;;;;;;5012595;28;20173;-73
2021/08/03 05:45:48;;;;;;;2.67;2.03;;;13.50;99.90;;;;;;5012944;28;20201;-73
2021/08/03 05:48:14;;;;;;;2.27;1.67;;;13.50;99.90;;;;;;5012750;28;20673;-73
2021/08/03 05:50:40;;;;;;;3.90;1.80;;;13.50;99.90;;;;;;5010276;28;20207;-73
2021/08/03 05:53:05;;;;;;;1.70;1.60;;;13.60;99.90;;;;;;4997899;28;20187;-73
2021/08/03 05:55:31;;;;;;;10.60;3.20;;;13.50;99.90;;;;;;4981496;28;20233;-73
2021/08/03 05:57:57;;;;;;;3.83;2.30;;;13.60;99.90;;;;;;5012717;28;20195;-73
2021/08/03 06:00:22;;;;;;;12.67;2.50;;;13.60;99.90;;;;;;5010901;28;20205;-73
2021/08/03 06:02:48;;;;;;;3.97;1.93;;;13.70;99.90;;;;;;5011119;28;20194;-73
2021/08/03 06:05:13;;;;;;;4.70;2.10;;;13.80;99.90;;;;;;5011633;28;20182;-73
2021/08/03 06:07:42;;;;;;;3.13;2.37;;;13.80;99.90;;;;;;5011070;28;20333;-73
2021/08/03 06:10:12;;;;;;;3.00;2.37;;;13.80;99.90;;;;;;5023522;28;20182;-73
2021/08/03 06:12:39;;;;;;;8.67;3.10;;;13.90;99.90;;;;;;5015599;28;20175;-73
2021/08/03 06:15:06;;;;;;;4.20;3.33;;;13.90;99.90;;;;;;5014903;28;20209;-73
2021/08/03 06:17:37;;;;;;;3.63;2.27;;;13.90;99.90;;;;;;5014627;28;20206;-73
2021/08/03 06:20:04;;;;;;;2.90;2.20;;;14.00;99.90;;;;;;5014710;28;20182;-73
2021/08/03 06:22:35;;;;;;;5.97;2.27;;;14.10;99.90;;;;;;5015387;28;20666;-73
2021/08/03 06:25:01;;;;;;;2.30;2.10;;;14.20;99.90;;;;;;5009630;28;20182;-73
2021/08/03 06:27:30;;;;;;;4.70;2.23;;;14.30;99.90;;;;;;5009844;28;20282;-73
2021/08/03 06:29:56;;;;;;;2.10;1.90;;;14.30;99.90;;;;;;5014943;28;20183;-73
2021/08/03 06:32:22;;;;;;;4.07;2.10;;;14.30;99.90;;;;;;5014224;28;20179;-73
2021/08/03 06:34:48;;;;;;;3.40;2.07;;;14.30;99.90;;;;;;5014793;28;20526;-72
2021/08/03 06:37:14;;;;;;;2.93;2.30;;;14.40;99.90;;;;;;5015219;28;20278;-73
2021/08/03 06:39:41;;;;;;;2.67;2.10;;;14.40;99.90;;;;;;5015079;28;20176;-73
2021/08/03 06:42:26;;;;;;;6.43;2.43;;;14.50;99.90;;;;;;5013020;28;20658;-73
2021/08/03 06:45:35;;;;;;;2.47;2.27;;;14.50;99.90;;;;;;5014496;28;20662;-73
2021/08/03 06:48:18;;;;;;;3.23;2.27;;;14.70;99.90;;;;;;5012906;28;20242;-73
2021/08/03 06:51:13;;;;;;;3.83;2.53;;;14.70;99.90;;;;;;5015392;28;20175;-73
2021/08/03 06:53:46;;;;;;;2.70;2.33;;;14.80;99.90;;;;;;5014269;28;20226;-72
2021/08/03 06:56:19;;;;;;;3.90;2.47;;;14.80;99.90;;;;;;5014211;28;20656;-73
2021/08/03 06:59:10;;;;;;;3.93;2.27;;;14.80;99.90;;;;;;5014410;28;20209;-73
2021/08/03 07:01:55;;;;;;;3.33;2.20;;;15.00;99.90;;;;;;5013692;28;20708;-73
2021/08/03 07:04:41;;;;;;;2.47;2.27;;;15.10;99.90;;;;;;5007583;28;20214;-72
2021/08/03 07:07:08;;;;;;;3.90;2.33;;;15.20;99.90;;;;;;5015236;28;20199;-73
2021/08/03 07:09:40;;;;;;;3.83;2.50;;;15.30;99.90;;;;;;5015316;28;20175;-73
2021/08/03 07:12:07;;;;;;;2.77;2.57;;;15.40;99.90;;;;;;5015051;28;20604;-73
2021/08/03 07:14:34;;;;;;;4.33;2.80;;;15.40;99.90;;;;;;5026210;28;20171;-73
2021/08/03 07:17:02;;;;;;;3.27;2.63;;;15.60;99.90;;;;;;5007021;28;20202;-73
2021/08/03 07:19:29;;;;;;;3.53;2.63;;;15.70;99.90;;;;;;5013591;28;20552;-73
2021/08/03 07:21:55;;;;;;;3.40;2.50;;;15.80;99.90;;;;;;5014652;28;20294;-73
2021/08/03 07:24:23;;;;;;;3.03;2.83;;;15.90;99.90;;;;;;5008131;28;20545;-73
2021/08/03 07:26:48;;;;;;;3.77;2.97;;;16.00;99.90;;;;;;5013374;28;20214;-73
2021/08/03 07:29:14;;;;;;;3.97;2.80;;;16.00;99.90;;;;;;5014069;28;20172;-73
2021/08/03 07:31:43;;;;;;;3.47;2.43;;;16.10;99.90;;;;;;5014259;28;20183;-73
2021/08/03 07:34:10;;;;;;;3.73;2.80;;;16.20;99.90;;;;;;5014826;28;20217;-74
2021/08/03 07:36:39;;;;;;;3.43;3.13;;;16.10;99.90;;;;;;5014744;28;20300;-74
2021/08/03 07:39:07;;;;;;;3.93;3.63;;;16.20;99.90;;;;;;5014712;28;20319;-74
2021/08/03 07:41:37;;;;;;;3.10;2.80;;;16.20;99.90;;;;;;5014135;28;20286;-74
2021/08/03 07:44:03;;;;;;;3.43;2.90;;;16.30;99.90;;;;;;5014702;28;20180;-74
2021/08/03 07:46:30;;;;;;;3.73;2.80;;;16.40;99.90;;;;;;5014440;28;20324;-74
2021/08/03 07:48:57;;;;;;;2.90;2.63;;;16.50;99.90;;;;;;5014102;28;20175;-75
2021/08/03 07:51:25;;;;;;;2.80;2.60;;;16.50;99.90;;;;;;4996998;28;20261;-75
2021/08/03 07:53:51;;;;;;;3.83;3.20;;;16.70;99.90;;;;;;5014349;28;20556;-75
2021/08/03 07:56:18;;;;;;;3.63;3.00;;;16.80;99.90;;;;;;5010609;28;20187;-74
2021/08/03 07:58:44;;;;;;;3.30;3.00;;;16.90;99.90;;;;;;5013856;28;20205;-75
2021/08/03 08:01:09;;;;;;;3.10;2.80;;;17.00;99.90;;;;;;5011533;28;20709;-75
2021/08/03 08:03:37;;;;;;;4.60;3.17;;;17.20;99.90;;;;;;5013211;28;20675;-74
2021/08/03 08:06:03;;;;;;;5.03;3.17;;;17.20;99.90;;;;;;5014628;28;20174;-74
2021/08/03 08:08:30;;;;;;;2.77;2.57;;;17.20;99.90;;;;;;5007759;28;20236;-74
2021/08/03 08:10:56;;;;;;;3.30;3.00;;;17.20;99.90;;;;;;5012832;28;20190;-74
2021/08/03 08:13:21;;;;;;;3.53;2.63;;;17.30;99.90;;;;;;4995112;28;20643;-74
2021/08/03 08:15:47;;;;;;;4.13;2.80;;;17.30;99.90;;;;;;5002753;28;20233;-72
2021/08/03 08:18:13;;;;;;;3.87;2.33;;;17.40;99.90;;;;;;5007571;28;20263;-74
2021/08/03 08:20:44;;;;;;;4.43;2.80;;;17.40;99.90;;;;;;5005016;28;20198;-74
2021/08/03 08:23:11;;;;;;;2.47;2.27;;;17.60;99.90;;;;;;4995326;28;20236;-74
2021/08/03 08:25:37;;;;;;;3.70;2.93;;;17.80;99.90;;;;;;5010252;28;20184;-74
2021/08/03 08:28:04;;;;;;;2.50;2.30;;;17.90;99.90;;;;;;5000362;28;20201;-74
2021/08/03 08:30:30;;;;;;;3.07;2.50;;;17.90;99.90;;;;;;5009478;28;20187;-74
2021/08/03 08:32:56;;;;;;;2.80;2.60;;;17.90;99.90;;;;;;5009314;28;20567;-74
2021/08/03 08:35:22;;;;;;;3.17;2.33;;;17.90;99.90;;;;;;5009030;28;20317;-74
2021/08/03 08:37:48;;;;;;;3.17;2.53;;;17.90;99.90;;;;;;5006326;28;20672;-74
2021/08/03 08:40:16;;;;;;;5.63;2.73;;;17.80;99.90;;;;;;5003900;28;20209;-74
2021/08/03 08:42:43;;;;;;;2.87;2.67;;;17.80;99.90;;;;;;5008486;28;20545;-74
2021/08/03 08:45:09;;;;;;;2.80;2.53;;;17.90;99.90;;;;;;5004584;28;20213;-74
2021/08/03 08:47:36;;;;;;;2.60;2.40;;;17.90;99.90;;;;;;5010669;28;20210;-74
2021/08/03 08:50:06;;;;;;;2.90;2.70;;;18.00;99.90;;;;;;5005526;28;20683;-73
2021/08/03 08:52:34;;;;;;;3.03;2.47;;;18.10;99.90;;;;;;5010062;28;20183;-73
2021/08/03 08:55:00;;;;;;;4.13;2.57;;;18.10;99.90;;;;;;5002102;28;20548;-74
2021/08/03 08:57:26;;;;;;;4.40;3.00;;;18.00;99.90;;;;;;5009511;28;20617;-73
2021/08/03 08:59:51;;;;;;;3.63;2.57;;;18.00;99.90;;;;;;5006496;28;20231;-74
2021/08/03 09:02:42;;;;;;;3.00;2.47;;;18.10;99.90;;;;;;5009772;28;20194;-73
2021/08/03 09:05:10;;;;;;;3.03;2.67;;;18.20;99.90;;;;;;5009518;28;20536;-74
2021/08/03 09:07:49;;;;;;;2.53;2.33;;;18.30;99.90;;;;;;5008357;28;20228;-73
2021/08/03 09:10:45;;;;;;;2.87;2.67;;;18.30;99.90;;;;;;5009065;28;20175;-74
2021/08/03 09:13:18;;;;;;;2.93;2.73;;;18.30;99.90;;;;;;5005546;28;20175;-74
2021/08/03 09:15:46;;;;;;;2.87;2.50;;;18.40;99.90;;;;;;4985279;28;20168;-74
2021/08/03 09:18:16;;;;;;;3.30;2.80;;;18.10;99.90;;;;;;5004868;28;20685;-73
2021/08/03 09:20:44;;;;;;;3.87;2.97;;;18.50;99.90;;;;;;4992726;28;20226;-74
2021/08/03 09:23:10;;;;;;;2.97;2.50;;;18.50;99.90;;;;;;4994377;28;20227;-74
2021/08/03 09:25:38;;;;;;;3.17;2.53;;;18.60;99.90;;;;;;5001811;28;20733;-74
2021/08/03 09:28:08;;;;;;;2.57;2.13;;;18.60;99.90;;;;;;5003283;28;20219;-74
2021/08/03 09:30:36;;;;;;;2.77;2.00;;;18.60;99.90;;;;;;4999090;28;20297;-73
2021/08/03 09:33:03;;;;;;;3.77;2.20;;;18.70;99.90;;;;;;5005504;28;20317;-73
2021/08/03 09:35:30;;;;;;;2.13;2.03;;;18.60;99.90;;;;;;5002831;28;20176;-73
2021/08/03 09:37:57;;;;;;;2.43;2.23;;;18.70;99.90;;;;;;5011453;28;20194;-73
2021/08/03 09:40:31;;;;;;;2.83;1.90;;;18.90;99.90;;;;;;5007576;28;20191;-73
2021/08/03 09:43:06;;;;;;;2.00;1.77;;;19.00;99.90;;;;;;5003574;28;20237;-73
2021/08/03 09:45:35;;;;;;;2.03;1.77;;;19.30;99.90;;;;;;4995129;28;20548;-74
2021/08/03 09:48:13;;;;;;;3.13;1.80;;;19.50;99.90;;;;;;5013261;28;20203;-74
2021/08/03 09:51:00;;;;;;;2.40;1.70;;;19.70;99.90;;;;;;5005094;28;20198;-73
2021/08/03 09:53:46;;;;;;;1.93;1.80;;;19.90;99.90;;;;;;5005395;28;20185;-74
2021/08/03 09:56:34;;;;;;;4.30;1.93;;;19.90;99.90;;;;;;5007361;28;20262;-74
2021/08/03 09:59:07;;;;;;;1.83;1.67;;;20.00;99.90;;;;;;5006424;28;20210;-74
2021/08/03 10:01:41;;;;;;;1.80;1.70;;;20.20;99.90;;;;;;5012878;28;20245;-73
2021/08/03 10:04:08;;;;;;;2.30;1.80;;;20.30;99.90;;;;;;5026449;28;20207;-73
2021/08/03 10:06:36;;;;;;;1.87;1.77;;;20.30;99.90;;;;;;5011846;28;20233;-74
2021/08/03 10:09:04;;;;;;;1.97;1.70;;;20.20;99.90;;;;;;5007138;28;20178;-73
2021/08/03 10:11:30;;;;;;;2.07;1.90;;;20.30;99.90;;;;;;5022835;28;20183;-74
2021/08/03 10:13:56;;;;;;;2.00;1.90;;;20.60;99.90;;;;;;5011261;28;20190;-73
2021/08/03 10:16:23;;;;;;;2.57;1.67;;;20.30;99.90;;;;;;5012619;28;20175;-73
2021/08/03 10:18:52;;;;;;;2.37;2.10;;;20.30;99.90;;;;;;5010456;28;20237;-73
2021/08/03 10:21:42;;;;;;;2.00;1.80;;;20.40;99.90;;;;;;5010562;28;20191;-74
2021/08/03 10:24:18;;;;;;;2.00;1.80;;;20.50;99.90;;;;;;5006166;28;20179;-73
2021/08/03 10:27:14;;;;;;;3.40;2.53;;;20.50;99.90;;;;;;5006994;28;20210;-73
2021/08/03 10:29:57;;;;;;;1.90;1.70;;;20.50;99.90;;;;;;4992114;28;20191;-73
2021/08/03 10:32:42;;;;;;;2.73;2.00;;;20.40;99.90;;;;;;4990433;28;20179;-73
2021/08/03 10:35:19;;;;;;;2.87;2.00;;;20.30;99.90;;;;;;5008010;28;20171;-73
2021/08/03 10:38:00;;;;;;;3.67;2.00;;;20.30;99.90;;;;;;5010334;28;20273;-74
2021/08/03 10:40:43;;;;;;;3.17;1.87;;;20.50;99.90;;;;;;4995343;28;20637;-74
2021/08/03 10:43:25;;;;;;;2.43;1.73;;;20.80;99.90;;;;;;5010586;28;20623;-74
2021/08/03 10:46:07;;;;;;;5.17;2.00;;;21.00;99.90;;;;;;5007170;28;20185;-73
2021/08/03 10:48:38;;;;;;;1.83;1.60;;;21.00;99.90;;;;;;5011006;28;20179;-73
2021/08/03 10:51:13;;;;;;;2.27;1.60;;;20.90;99.90;;;;;;5002577;28;20242;-74
2021/08/03 10:53:59;;;;;;;2.07;1.80;;;21.10;99.90;;;;;;5013051;28;20258;-74
2021/08/03 10:56:25;;;;;;;2.50;1.83;;;21.20;99.90;;;;;;5006875;28;20187;-73
2021/08/03 10:59:29;;;;;;;2.07;1.50;;;21.20;99.90;;;;;;5011738;28;20176;-73
2021/08/03 11:01:55;;;;;;;2.10;1.63;;;21.30;99.90;;;;;;5004852;28;20196;-74
2021/08/03 11:04:43;;;;;;;4.23;1.50;;;21.30;99.90;;;;;;5014120;28;20630;-74
2021/08/03 11:07:27;;;;;;;2.90;1.80;;;21.30;99.90;;;;;;5009984;28;20215;-74
2021/08/03 11:10:10;;;;;;;1.70;1.50;;;21.40;99.90;;;;;;4994492;28;20183;-74
2021/08/03 11:12:46;;;;;;;1.90;1.70;;;21.30;99.90;;;;;;5011097;28;20382;-74
2021/08/03 11:15:21;;;;;;;1.40;1.30;;;21.40;99.90;;;;;;5009535;28;20179;-74
2021/08/03 11:18:00;;;;;;;3.20;1.70;;;21.40;99.90;;;;;;5011685;28;20660;-73
2021/08/03 11:20:39;;;;;;;2.27;1.60;;;21.40;99.90;;;;;;5008141;28;20627;-74
2021/08/03 11:23:09;;;;;;;6.83;1.77;;;21.40;99.90;;;;;;5002874;28;20198;-74
2021/08/03 11:25:36;;;;;;;2.13;1.93;;;21.20;99.90;;;;;;5003884;28;20188;-73
2021/08/03 11:28:19;;;;;;;1.67;1.37;;;21.10;99.90;;;;;;5013473;28;20313;-73
2021/08/03 11:30:47;;;;;;;1.50;1.40;;;21.20;99.90;;;;;;5010734;28;20673;-74
2021/08/03 11:33:15;;;;;;;1.50;1.40;;;21.30;99.90;;;;;;5011685;28;20182;-74
2021/08/03 11:35:41;;;;;;;3.47;1.73;;;21.50;99.90;;;;;;4995736;28;20657;-73
2021/08/03 11:38:11;;;;;;;2.70;1.40;;;21.50;99.90;;;;;;5008580;28;20199;-73
2021/08/03 11:40:38;;;;;;;1.83;1.33;;;21.50;99.90;;;;;;5011368;28;20195;-74
2021/08/03 11:43:06;;;;;;;1.30;1.10;;;21.60;99.90;;;;;;5006392;28;20540;-73
2021/08/03 11:45:36;;;;;;;1.33;1.23;;;21.70;99.90;;;;;;4993084;28;20187;-74
2021/08/03 11:48:04;;;;;;;1.30;1.20;;;21.60;99.90;;;;;;4991776;28;20204;-73
2021/08/03 11:50:29;;;;;;;1.60;1.37;;;21.50;99.90;;;;;;4995446;28;20661;-74
2021/08/03 11:53:24;;;;;;;1.80;1.40;;;21.40;99.90;;;;;;5008049;28;20189;-73
2021/08/03 11:55:55;;;;;;;1.53;1.10;;;21.40;99.90;;;;;;4997215;28;20254;-74
2021/08/03 11:58:25;;;;;;;1.90;1.47;;;21.30;99.90;;;;;;5006743;28;20217;-74
2021/08/03 12:00:53;;;;;;;1.57;1.23;;;21.30;99.90;;;;;;5009410;28;20194;-72
2021/08/03 12:03:28;;;;;;;3.10;1.50;;;21.30;99.90;;;;;;5004741;28;20670;-74
2021/08/03 12:05:54;;;;;;;1.47;1.20;;;21.30;99.90;;;;;;5010686;28;20178;-74
2021/08/03 12:08:20;;;;;;;1.53;1.20;;;21.20;99.90;;;;;;5008334;28;20194;-74
2021/08/03 12:10:49;;;;;;;1.77;1.40;;;21.10;99.90;;;;;;5005109;28;20187;-74
2021/08/03 12:13:32;;;;;;;1.30;1.00;;;21.00;99.90;;;;;;5015710;28;20182;-74
2021/08/03 12:16:00;;;;;;;1.37;0.90;;;20.80;99.90;;;;;;5008567;28;20249;-74
2021/08/03 12:18:36;;;;;;;1.87;0.80;;;20.60;99.90;;;;;;5007199;28;20215;-74
2021/08/03 12:21:02;;;;;;;9.90;2.07;;;20.30;99.90;;;;;;5008210;28;20199;-74
2021/08/03 12:23:30;;;;;;;4.13;1.03;;;19.30;99.90;;;;;;5010543;28;20179;-74
2021/08/03 12:25:59;;;;;;;5.23;1.73;;;18.50;99.90;;;;;;5021189;28;20218;-74
2021/08/03 12:28:51;;;;;;;2.83;1.73;;;18.30;99.90;;;;;;5000653;28;20249;-73
2021/08/03 12:31:31;;;;;;;1.77;1.30;;;18.10;99.90;;;;;;4998803;28;20187;-73
2021/08/03 12:34:05;;;;;;;1.73;1.10;;;17.70;99.90;;;;;;5004148;28;20550;-73
2021/08/03 12:36:40;;;;;;;3.03;1.00;;;;;;;;;;4998967;28;20207;-72
2021/08/03 12:39:21;;;;;;;2.10;1.10;;;17.20;99.90;;;;;;5002474;28;20953;-73
2021/08/03 12:42:07;;;;;;;3.10;1.50;;;17.20;99.90;;;;;;4991057;28;20221;-73
2021/08/03 12:44:38;;;;;;;1.00;0.90;;;17.30;99.90;;;;;;5002386;28;20269;-73
2021/08/03 12:47:12;;;;;;;2.37;1.00;;;17.30;99.90;;;;;;4995173;28;20219;-73
2021/08/03 12:49:40;;;;;;;2.83;1.23;;;17.30;99.90;;;;;;5005237;28;20184;-73
2021/08/03 12:52:17;;;;;;;1.27;0.90;;;17.20;99.90;;;;;;5004060;28;20669;-73
2021/08/03 12:54:56;;;;;;;2.40;0.87;;;17.10;99.90;;;;;;5006076;28;20658;-73
2021/08/03 12:57:23;;;;;;;1.43;1.20;;;17.20;99.90;;;;;;5008540;28;20636;-73
2021/08/03 12:59:50;;;;;;;1.70;0.90;;;17.10;99.90;;;;;;5005966;28;20187;-73
2021/08/03 13:02:17;;;;;;;1.67;1.10;;;17.00;99.90;;;;;;5008358;28;20260;-73
2021/08/03 13:04:44;;;;;;;2.27;1.23;;;17.10;99.90;;;;;;5005235;28;20183;-73